Webcam Flughafen St.Gallen-Altenrhein

Live-Bilder und Zeitraffer LSZR / ACH.

 

Live aus Altenrhein
LIVE
LSZR 161750Z VRB02KT 9999 SCT020 03/02 Q1025 NOSIG RMK M
Zeitraffer heute
2018-11-16 00:14:43
LSZR 152250Z AUTO VRB02KT 9999 OVC014 06/04 Q1026
Zeitraffer gestern
2018-11-15 00:14:13
LSZR 142250Z AUTO 09005KT 070V140 8000 OVC006 07/06 Q1027
Zeitraffer vor 3 Tagen
2018-11-13 00:14:33
LSZR 122250Z AUTO VRB02KT CAVOK 06/05 Q1021